Time;durP1;ratioP1;P1;durP2;ratioP2;P2;SDS_P1;SDS_P2;PMS_P1;PMS_P2;Temp;Humidity;BMP_temperature;BMP_pressure;BME280_temperature;BME280_humidity;BME280_pressure;Samples;Min_cycle;Max_cycle;Signal;HPM_P1;HPM_P2
2022/12/04 00:01:52;;;;;;;10.3;6.6;;;;;;;1.01;100;931.9878;;;;
2022/12/04 00:04:18;;;;;;;11;6.6;;;;;;;1.07;100;931.8417;;;;
2022/12/04 00:06:43;;;;;;;9.8;6.2;;;;;;;1.12;100;931.9333;;;;
2022/12/04 00:09:19;;;;;;;11.1;7.2;;;;;;;1.13;100;931.9095;;;;
2022/12/04 00:11:55;;;;;;;11.1;7.4;;;;;;;1.2;100;931.9189;;;;
2022/12/04 00:14:42;;;;;;;11;8;;;;;;;1.27;100;931.9075;;;;
2022/12/04 00:17:19;;;;;;;9;6.2;;;;;;;1.14;100;931.9241;;;;
2022/12/04 00:19:49;;;;;;;8.5;5.9;;;;;;;1.03;100;931.8865;;;;
2022/12/04 00:22:27;;;;;;;10.4;6.5;;;;;;;1.14;100;931.8762;;;;
2022/12/04 00:24:57;;;;;;;8;6.5;;;;;;;1.22;100;931.9214;;;;
2022/12/04 00:27:22;;;;;;;8.8;5.5;;;;;;;1.23;100;931.9328;;;;
2022/12/04 00:29:54;;;;;;;10.2;6.5;;;;;;;1.27;100;931.8716;;;;
2022/12/04 00:32:27;;;;;;;11;6.3;;;;;;;1.23;100;931.8606;;;;
2022/12/04 00:34:55;;;;;;;7.6;5.4;;;;;;;1.24;100;931.8993;;;;
2022/12/04 00:37:20;;;;;;;6.9;4.8;;;;;;;1.08;100;931.885;;;;
2022/12/04 00:39:49;;;;;;;5;4.3;;;;;;;1.16;100;931.8158;;;;
2022/12/04 00:42:14;;;;;;;8.7;5.2;;;;;;;1.16;100;931.801;;;;
2022/12/04 00:44:41;;;;;;;7.5;5.2;;;;;;;1.36;100;931.9772;;;;
2022/12/04 00:47:06;;;;;;;6.5;4.2;;;;;;;1.4;100;932.0259;;;;
2022/12/04 00:49:34;;;;;;;5.7;4.3;;;;;;;1.38;100;932.032;;;;
2022/12/04 00:51:59;;;;;;;8;4.6;;;;;;;1.43;100;932.0097;;;;
2022/12/04 00:54:27;;;;;;;6.8;4.3;;;;;;;1.26;100;931.9645;;;;
2022/12/04 00:56:52;;;;;;;7.4;4.6;;;;;;;1.3;100;931.9885;;;;
2022/12/04 00:59:18;;;;;;;5.7;4.4;;;;;;;1.18;100;931.963;;;;
2022/12/04 01:01:43;;;;;;;5.6;4.1;;;;;;;1.34;100;932.0245;;;;
2022/12/04 01:04:11;;;;;;;6.5;4;;;;;;;1.39;99.72363;932.0511;;;;
2022/12/04 01:06:36;;;;;;;6.1;4.7;;;;;;;1.3;100;932.0953;;;;
2022/12/04 01:09:03;;;;;;;5.8;4.5;;;;;;;1.34;100;932.0785;;;;
2022/12/04 01:11:28;;;;;;;6.4;4.9;;;;;;;1.22;100;932.0933;;;;
2022/12/04 01:13:55;;;;;;;5.7;4.8;;;;;;;1.28;100;932.0278;;;;
2022/12/04 01:16:20;;;;;;;8.1;5.3;;;;;;;1.25;100;932.0058;;;;
2022/12/04 01:18:47;;;;;;;7.8;4.4;;;;;;;1.31;100;931.9472;;;;
2022/12/04 01:21:12;;;;;;;6.9;4.6;;;;;;;1.31;100;932.0517;;;;
2022/12/04 01:23:38;;;;;;;6.5;4.7;;;;;;;1.31;100;931.9872;;;;
2022/12/04 01:26:03;;;;;;;6.3;4.5;;;;;;;1.3;99.95996;931.9602;;;;
2022/12/04 01:28:28;;;;;;;5;3.8;;;;;;;1.29;100;931.873;;;;
2022/12/04 01:30:53;;;;;;;4.1;3.6;;;;;;;1.38;100;931.8063;;;;
2022/12/04 01:33:21;;;;;;;4.3;3.4;;;;;;;1.35;100;931.8089;;;;
2022/12/04 01:35:46;;;;;;;4.9;3.8;;;;;;;1.45;99.83984;931.8527;;;;
2022/12/04 01:38:12;;;;;;;6.6;4.3;;;;;;;1.49;99.50391;931.9127;;;;
2022/12/04 01:40:38;;;;;;;5.5;3.6;;;;;;;1.53;99.19922;931.8568;;;;
2022/12/04 01:43:06;;;;;;;5.8;4.2;;;;;;;1.47;99.4209;931.8431;;;;
2022/12/04 01:45:31;;;;;;;6.6;4.4;;;;;;;1.42;99.73047;931.7833;;;;
2022/12/04 01:47:56;;;;;;;7.2;4.4;;;;;;;1.3;100;931.7673;;;;
2022/12/04 01:50:25;;;;;;;8.4;4.6;;;;;;;1.34;100;931.7844;;;;
2022/12/04 01:52:51;;;;;;;6.2;4.3;;;;;;;1.3;100;931.7424;;;;
2022/12/04 01:55:16;;;;;;;7.7;4.9;;;;;;;1.05;100;931.7195;;;;
2022/12/04 01:57:41;;;;;;;6.5;4.3;;;;;;;1.05;100;931.642;;;;
2022/12/04 02:00:07;;;;;;;6.6;4.4;;;;;;;0.95;100;931.6438;;;;
2022/12/04 02:02:39;;;;;;;6.6;4.5;;;;;;;0.79;100;931.5979;;;;
2022/12/04 02:05:06;;;;;;;7.7;4.3;;;;;;;0.82;100;931.5289;;;;
2022/12/04 02:07:31;;;;;;;6.3;3.8;;;;;;;0.88;100;931.4455;;;;
2022/12/04 02:10:02;;;;;;;4.8;3.8;;;;;;;0.89;100;931.466;;;;
2022/12/04 02:12:31;;;;;;;4.3;3.5;;;;;;;0.76;100;931.3111;;;;
2022/12/04 02:14:52;;;;;;;4.9;3.4;;;;;;;0.79;100;931.3848;;;;
2022/12/04 02:17:17;;;;;;;4.4;3.1;;;;;;;0.89;100;931.4764;;;;
2022/12/04 02:19:42;;;;;;;4.5;3.3;;;;;;;0.92;100;931.4498;;;;
2022/12/04 02:22:07;;;;;;;5.6;3.3;;;;;;;1.07;100;931.4529;;;;
2022/12/04 02:24:33;;;;;;;5.6;3.5;;;;;;;1.08;100;931.421;;;;
2022/12/04 02:27:01;;;;;;;6.4;4.1;;;;;;;1.05;100;931.435;;;;
2022/12/04 02:29:30;;;;;;;5.6;3.7;;;;;;;1.1;100;931.3981;;;;
2022/12/04 02:31:55;;;;;;;7.4;3.7;;;;;;;1.16;100;931.3962;;;;
2022/12/04 02:34:20;;;;;;;6.4;3.7;;;;;;;1.17;100;931.4609;;;;
2022/12/04 02:36:45;;;;;;;5.5;3.6;;;;;;;1.25;100;931.4984;;;;
2022/12/04 02:39:10;;;;;;;4.9;3.4;;;;;;;1.3;100;931.4355;;;;
2022/12/04 02:41:36;;;;;;;5.5;3.7;;;;;;;1.29;100;931.4958;;;;
2022/12/04 02:44:05;;;;;;;7.4;4.4;;;;;;;1.19;100;931.5062;;;;
2022/12/04 02:46:30;;;;;;;7.6;5.1;;;;;;;1.05;100;931.4592;;;;
2022/12/04 02:48:55;;;;;;;9.4;6.1;;;;;;;1.05;100;931.4767;;;;
2022/12/04 02:51:23;;;;;;;8;5.7;;;;;;;0.98;100;931.419;;;;
2022/12/04 02:53:48;;;;;;;11.1;6.7;;;;;;;0.85;100;931.4364;;;;
2022/12/04 02:56:15;;;;;;;18.4;10.7;;;;;;;1;100;931.4689;;;;
2022/12/04 02:58:43;;;;;;;15.1;8.2;;;;;;;1.04;100;931.4221;;;;
2022/12/04 03:01:22;;;;;;;12.8;7.3;;;;;;;1.21;100;931.3937;;;;
2022/12/04 03:03:33;;;;;;;10.7;6;;;;;;;1.28;100;931.3441;;;;
2022/12/04 03:05:58;;;;;;;9;5.1;;;;;;;1.29;100;931.3969;;;;
2022/12/04 03:08:23;;;;;;;6.6;4.1;;;;;;;1.14;100;931.2421;;;;
2022/12/04 03:10:51;;;;;;;7.1;4.6;;;;;;;0.98;100;931.3141;;;;
2022/12/04 03:13:16;;;;;;;9.3;5.9;;;;;;;1;100;931.2625;;;;
2022/12/04 03:15:47;;;;;;;15.4;9.3;;;;;;;1.03;100;931.3222;;;;
2022/12/04 03:18:12;;;;;;;10.2;6;;;;;;;1.12;100;931.347;;;;
2022/12/04 03:20:37;;;;;;;7.2;5.1;;;;;;;1.17;100;931.4327;;;;
2022/12/04 03:23:02;;;;;;;14.1;7.3;;;;;;;1.21;100;931.3723;;;;
2022/12/04 03:25:27;;;;;;;15.9;9;;;;;;;1.23;100;931.3102;;;;
2022/12/04 03:27:53;;;;;;;11.8;6.4;;;;;;;1.16;100;931.3499;;;;
2022/12/04 03:30:18;;;;;;;5.3;3.8;;;;;;;0.97;100;931.3998;;;;
2022/12/04 03:32:43;;;;;;;10.7;7.3;;;;;;;1.01;100;931.4281;;;;
2022/12/04 03:35:08;;;;;;;9.8;6.5;;;;;;;1.16;100;931.4205;;;;
2022/12/04 03:37:33;;;;;;;5.3;4;;;;;;;1.31;100;931.4213;;;;
2022/12/04 03:39:58;;;;;;;3.5;2.7;;;;;;;1.43;100;931.5012;;;;
2022/12/04 03:42:23;;;;;;;3.1;2.7;;;;;;;1.54;100;931.413;;;;
2022/12/04 03:44:48;;;;;;;4.3;3.2;;;;;;;1.47;100;931.5081;;;;
2022/12/04 03:47:13;;;;;;;3.4;3;;;;;;;1.58;100;931.5438;;;;
2022/12/04 03:49:39;;;;;;;4;3.2;;;;;;;1.67;99.63379;931.5744;;;;
2022/12/04 03:52:04;;;;;;;3.2;2.9;;;;;;;1.53;99.84766;931.507;;;;
2022/12/04 03:54:29;;;;;;;5.3;3.2;;;;;;;1.46;100;931.4473;;;;
2022/12/04 03:56:54;;;;;;;4.5;3.3;;;;;;;1.52;100;931.4863;;;;
2022/12/04 03:59:19;;;;;;;4.3;2.7;;;;;;;1.58;100;931.5187;;;;
2022/12/04 04:02:31;;;;;;;3.3;2.8;;;;;;;1.71;99.25293;931.4705;;;;
2022/12/04 04:04:56;;;;;;;4.2;2.9;;;;;;;1.81;98.47266;931.4952;;;;
2022/12/04 04:07:21;;;;;;;5.6;3.6;;;;;;;1.77;97.90039;931.389;;;;
2022/12/04 04:09:46;;;;;;;3.2;2.9;;;;;;;1.66;98.6582;931.3606;;;;
2022/12/04 04:12:11;;;;;;;7.3;4.6;;;;;;;1.6;99.30566;931.3546;;;;
2022/12/04 04:24:18;;;;;;;4.1;2.7;;;;;;;1.1;100;931.3903;;;;
2022/12/04 04:26:43;;;;;;;3;2.4;;;;;;;1.06;100;931.3022;;;;
2022/12/04 04:29:08;;;;;;;3.9;2.5;;;;;;;1.11;100;931.2126;;;;
2022/12/04 04:31:35;;;;;;;3.9;2.6;;;;;;;1.16;100;931.3564;;;;
2022/12/04 04:34:00;;;;;;;3.2;2.4;;;;;;;1.19;100;931.3535;;;;
2022/12/04 04:36:25;;;;;;;3;2.7;;;;;;;1.17;100;931.3487;;;;
2022/12/04 04:38:50;;;;;;;3.6;2.4;;;;;;;1.09;100;931.2308;;;;
2022/12/04 04:41:16;;;;;;;2.7;2.1;;;;;;;1.09;100;931.2802;;;;
2022/12/04 04:43:41;;;;;;;2.5;2.3;;;;;;;1.2;100;931.2941;;;;
2022/12/04 04:46:06;;;;;;;3;2.4;;;;;;;1.26;100;931.2031;;;;
2022/12/04 04:48:31;;;;;;;2.7;2.3;;;;;;;1.33;100;931.2704;;;;
2022/12/04 04:50:56;;;;;;;3.6;2.5;;;;;;;1.16;100;931.3353;;;;
2022/12/04 04:53:25;;;;;;;3.4;2.6;;;;;;;1.27;100;931.3491;;;;
2022/12/04 04:55:48;;;;;;;3.6;2.4;;;;;;;1.41;100;931.2952;;;;
2022/12/04 04:58:14;;;;;;;5.4;3.4;;;;;;;1.38;100;931.2744;;;;
2022/12/04 05:00:39;;;;;;;5.8;4.1;;;;;;;1.29;100;931.316;;;;
2022/12/04 05:03:06;;;;;;;4.7;3.3;;;;;;;1.31;100;931.3105;;;;
2022/12/04 05:05:31;;;;;;;4.6;3.1;;;;;;;1.35;100;931.2554;;;;
2022/12/04 05:07:56;;;;;;;4.7;3.5;;;;;;;1.44;100;931.2459;;;;
2022/12/04 05:10:21;;;;;;;3.5;3.1;;;;;;;1.52;100;931.2665;;;;
2022/12/04 05:12:49;;;;;;;3.8;2.8;;;;;;;1.53;100;931.1499;;;;
2022/12/04 05:15:14;;;;;;;4.7;2.9;;;;;;;1.52;100;931.2491;;;;
2022/12/04 05:17:43;;;;;;;3.9;3;;;;;;;1.63;100;931.2381;;;;
2022/12/04 05:20:08;;;;;;;5.9;3.9;;;;;;;1.74;100;931.2258;;;;
2022/12/04 05:22:34;;;;;;;6.4;4.6;;;;;;;1.7;100;931.2294;;;;
2022/12/04 05:24:59;;;;;;;7.4;4.6;;;;;;;1.76;100;931.1125;;;;
2022/12/04 05:32:28;;;;;;;3;2.5;;;;;;;1.7;100;931.2424;;;;
2022/12/04 05:34:55;;;;;;;4.1;2.9;;;;;;;1.78;100;931.2466;;;;
2022/12/04 05:37:20;;;;;;;4.2;2.9;;;;;;;1.87;100;931.2466;;;;
2022/12/04 05:39:50;;;;;;;2.8;2.3;;;;;;;1.91;100;931.177;;;;
2022/12/04 05:42:15;;;;;;;2.8;2.2;;;;;;;1.79;100;931.2014;;;;
2022/12/04 05:44:44;;;;;;;3.7;3.1;;;;;;;1.64;100;931.2266;;;;
2022/12/04 05:47:09;;;;;;;2.8;2.5;;;;;;;1.79;100;931.2508;;;;
2022/12/04 05:49:36;;;;;;;3.1;2.4;;;;;;;1.93;100;931.2601;;;;
2022/12/04 05:52:01;;;;;;;3.3;2.7;;;;;;;1.93;100;931.2325;;;;
2022/12/04 05:54:27;;;;;;;2.7;2.1;;;;;;;1.87;100;931.183;;;;
2022/12/04 05:56:52;;;;;;;2.7;2.5;;;;;;;2.02;100;931.142;;;;
2022/12/04 05:59:20;;;;;;;4;2.7;;;;;;;1.99;100;931.1096;;;;
2022/12/04 06:01:45;;;;;;;3.1;2.6;;;;;;;1.92;100;931.0369;;;;
2022/12/04 06:04:13;;;;;;;4.2;3.3;;;;;;;1.93;100;931.1479;;;;
2022/12/04 06:06:39;;;;;;;4.1;3.4;;;;;;;1.9;100;931.132;;;;
2022/12/04 06:09:04;;;;;;;5;3.8;;;;;;;1.89;100;931.0776;;;;
2022/12/04 06:11:29;;;;;;;4.2;3.3;;;;;;;1.77;100;931.0485;;;;
2022/12/04 06:13:55;;;;;;;3.6;3;;;;;;;1.74;100;931.0192;;;;
2022/12/04 06:16:21;;;;;;;2.9;2.6;;;;;;;1.78;100;931.0771;;;;
2022/12/04 06:18:47;;;;;;;4;2.9;;;;;;;1.78;100;931.1838;;;;
2022/12/04 06:21:13;;;;;;;4.6;3.4;;;;;;;1.82;100;931.1595;;;;
2022/12/04 06:23:40;;;;;;;5.2;3.8;;;;;;;1.86;100;931.1364;;;;
2022/12/04 06:26:05;;;;;;;5.3;4.1;;;;;;;1.9;100;931.0237;;;;
2022/12/04 06:28:33;;;;;;;5.8;4.7;;;;;;;1.99;100;930.98;;;;
2022/12/04 06:30:58;;;;;;;6.4;4.9;;;;;;;2.01;100;930.9503;;;;
2022/12/04 06:33:25;;;;;;;6.3;4.9;;;;;;;2.08;100;930.8273;;;;
2022/12/04 06:35:51;;;;;;;6.2;4.6;;;;;;;1.89;100;930.8655;;;;
2022/12/04 06:38:21;;;;;;;5.3;4.5;;;;;;;1.86;100;930.9125;;;;
2022/12/04 06:40:46;;;;;;;4.1;3.2;;;;;;;1.96;100;930.8152;;;;
2022/12/04 06:43:17;;;;;;;3.7;2.8;;;;;;;1.99;100;930.8671;;;;
2022/12/04 06:45:45;;;;;;;4.2;3;;;;;;;2.09;100;930.853;;;;
2022/12/04 06:48:11;;;;;;;3.6;2.6;;;;;;;2.22;100;930.8828;;;;
2022/12/04 06:50:41;;;;;;;10.5;6.9;;;;;;;2.47;100;930.9207;;;;
2022/12/04 06:53:10;;;;;;;9;7.1;;;;;;;2.54;100;930.8463;;;;
2022/12/04 06:55:35;;;;;;;5.8;4.5;;;;;;;2.48;100;930.7969;;;;
2022/12/04 06:58:01;;;;;;;7.1;6.5;;;;;;;2.47;100;930.7886;;;;
2022/12/04 07:00:26;;;;;;;5;4.5;;;;;;;2.42;100;930.8164;;;;
2022/12/04 07:02:55;;;;;;;4.9;3.8;;;;;;;2.48;100;930.8045;;;;
2022/12/04 07:05:20;;;;;;;3.8;2.9;;;;;;;2.28;100;930.832;;;;
2022/12/04 07:07:45;;;;;;;4.4;3.4;;;;;;;2.41;100;930.7115;;;;
2022/12/04 07:10:10;;;;;;;4;3.7;;;;;;;2.52;100;930.7352;;;;
2022/12/04 07:12:40;;;;;;;3.5;2.8;;;;;;;2.57;100;930.7491;;;;
2022/12/04 07:15:05;;;;;;;4.6;3.6;;;;;;;2.76;100;930.8265;;;;
2022/12/04 07:17:33;;;;;;;4;3.2;;;;;;;2.89;100;930.8067;;;;
2022/12/04 07:19:58;;;;;;;4.2;2.8;;;;;;;2.91;100;930.7899;;;;
2022/12/04 07:22:23;;;;;;;5.1;3.7;;;;;;;2.95;100;930.7539;;;;
2022/12/04 07:24:51;;;;;;;6.4;5.8;;;;;;;3.01;100;930.6919;;;;
2022/12/04 07:27:16;;;;;;;6.5;4.7;;;;;;;3.13;100;930.6925;;;;
2022/12/04 07:29:42;;;;;;;7.5;6.6;;;;;;;3.24;100;930.6155;;;;
2022/12/04 07:34:34;;;;;;;7.6;5.3;;;;;;;3.35;100;930.7123;;;;
2022/12/04 07:37:02;;;;;;;7.2;6.3;;;;;;;3.59;100;930.72;;;;
2022/12/04 07:39:28;;;;;;;9.1;5.9;;;;;;;3.6;99.02051;930.6682;;;;
2022/12/04 07:41:54;;;;;;;8.4;5.8;;;;;;;3.51;98.70801;930.7086;;;;
2022/12/04 07:44:20;;;;;;;11;7.8;;;;;;;3.33;97.94727;930.8103;;;;
2022/12/04 07:46:50;;;;;;;10.3;7.1;;;;;;;3.07;99.24414;930.842;;;;
2022/12/04 07:49:20;;;;;;;12.3;9;;;;;;;3.03;100;930.8452;;;;
2022/12/04 07:51:49;;;;;;;8;6;;;;;;;3.23;99.98926;930.9391;;;;
2022/12/04 07:54:14;;;;;;;6.9;5.3;;;;;;;3.28;100;930.7816;;;;
2022/12/04 07:56:41;;;;;;;7.1;5.4;;;;;;;3.53;99.75684;930.9442;;;;
2022/12/04 07:59:06;;;;;;;6.8;6.1;;;;;;;3.67;98.79004;930.9242;;;;
2022/12/04 08:01:34;;;;;;;7.3;4.9;;;;;;;3.59;97.72461;931.0369;;;;
2022/12/04 08:03:59;;;;;;;9.6;6.9;;;;;;;3.46;96.60645;931.0189;;;;
2022/12/04 08:06:26;;;;;;;11.7;8;;;;;;;3.36;95.75488;931.0785;;;;
2022/12/04 08:08:51;;;;;;;10.8;7.9;;;;;;;3.14;95.66113;931.1019;;;;
2022/12/04 08:11:17;;;;;;;11.3;7.9;;;;;;;3.11;95.96484;931.134;;;;
2022/12/04 08:13:42;;;;;;;13;8.9;;;;;;;3.12;95.78906;931.165;;;;
2022/12/04 08:16:07;;;;;;;11.7;8.8;;;;;;;3.16;95.46094;931.1778;;;;
2022/12/04 08:18:34;;;;;;;13.3;9.7;;;;;;;3.18;95.30957;931.1281;;;;
2022/12/04 08:20:59;;;;;;;13.2;9.3;;;;;;;3.2;94.68555;931.0798;;;;
2022/12/04 08:23:28;;;;;;;14.4;10.2;;;;;;;2.98;94.46875;931.1093;;;;
2022/12/04 08:25:53;;;;;;;13.7;9.9;;;;;;;2.68;95.21875;931.1544;;;;
2022/12/04 08:28:20;;;;;;;13.2;9.8;;;;;;;2.74;95.62598;931.1937;;;;
2022/12/04 08:30:45;;;;;;;13.5;10;;;;;;;2.81;95.86621;931.2062;;;;
2022/12/04 08:33:12;;;;;;;14.6;10.4;;;;;;;2.93;95.55566;931.2015;;;;
2022/12/04 08:35:37;;;;;;;14.2;10.6;;;;;;;2.86;95.14746;931.2703;;;;
2022/12/04 08:38:04;;;;;;;17.3;11.7;;;;;;;2.57;95.91406;931.4106;;;;
2022/12/04 08:40:29;;;;;;;15.2;10.7;;;;;;;2.63;96.2959;931.4886;;;;
2022/12/04 08:42:56;;;;;;;16.7;11.6;;;;;;;2.59;96.64453;931.3561;;;;
2022/12/04 08:45:21;;;;;;;15.3;10.7;;;;;;;2.6;96.59277;931.2035;;;;
2022/12/04 08:47:49;;;;;;;17.1;10.9;;;;;;;2.6;96.44531;931.2486;;;;
2022/12/04 08:50:14;;;;;;;15.5;11;;;;;;;2.55;96.70313;931.2489;;;;
2022/12/04 08:52:39;;;;;;;19;12.2;;;;;;;2.53;97.0918;931.3278;;;;
2022/12/04 08:55:04;;;;;;;17.4;11.4;;;;;;;2.66;97.32227;931.3943;;;;
2022/12/04 08:57:29;;;;;;;16.9;11.5;;;;;;;2.53;97.24609;931.2969;;;;
2022/12/04 08:59:55;;;;;;;17.6;11.1;;;;;;;2.69;97.22949;931.3395;;;;
2022/12/04 09:02:20;;;;;;;16.6;11.5;;;;;;;2.91;97.07715;931.3236;;;;
2022/12/04 09:04:48;;;;;;;16.3;11;;;;;;;3.01;96.41797;931.3376;;;;
2022/12/04 09:07:13;;;;;;;15.7;10.3;;;;;;;3.05;95.77539;931.3105;;;;
2022/12/04 09:13:14;;;;;;;15.8;10.7;;;;;;;3.31;94.76563;931.2881;;;;
2022/12/04 09:15:48;;;;;;;17.2;11.6;;;;;;;3.45;94.08887;931.3461;;;;
2022/12/04 09:18:13;;;;;;;16.6;11.7;;;;;;;3.59;93.42383;931.3195;;;;
2022/12/04 09:20:42;;;;;;;16.5;10.7;;;;;;;3.82;92.91309;931.2233;;;;
2022/12/04 09:23:07;;;;;;;15.7;11.1;;;;;;;4.04;92.85938;931.1339;;;;
2022/12/04 09:25:32;;;;;;;15.1;11;;;;;;;4.15;91.19531;931.1719;;;;
2022/12/04 09:27:57;;;;;;;14.8;10.6;;;;;;;4.22;90.55859;931.2399;;;;
2022/12/04 09:30:24;;;;;;;14;9.6;;;;;;;4.46;89.38184;931.1292;;;;
2022/12/04 09:32:50;;;;;;;14.6;10;;;;;;;4.4;88.74902;931.1372;;;;
2022/12/04 09:35:16;;;;;;;14.2;10;;;;;;;4.47;88.1582;930.9199;;;;
2022/12/04 09:37:41;;;;;;;13.3;9.5;;;;;;;4.65;88.26074;930.9662;;;;
2022/12/04 09:40:08;;;;;;;12.7;9.4;;;;;;;4.71;86.44922;930.9161;;;;
2022/12/04 09:42:32;;;;;;;12.1;8.6;;;;;;;4.87;86.42578;930.9724;;;;
2022/12/04 09:44:58;;;;;;;13;9.1;;;;;;;4.82;86.13379;930.9981;;;;
2022/12/04 09:47:23;;;;;;;11.3;8.7;;;;;;;4.85;86.65918;930.8994;;;;
2022/12/04 09:49:48;;;;;;;11;8.4;;;;;;;4.82;86.86719;930.9769;;;;
2022/12/04 09:52:13;;;;;;;12;8.9;;;;;;;4.94;86.57422;930.7772;;;;
2022/12/04 09:54:39;;;;;;;11.7;8.5;;;;;;;4.27;87.93555;930.947;;;;
2022/12/04 09:57:04;;;;;;;12.5;9.1;;;;;;;4.38;88.15039;930.8988;;;;
2022/12/04 09:59:29;;;;;;;13;9.3;;;;;;;4.49;88.59863;930.8311;;;;
2022/12/04 10:01:58;;;;;;;16.3;11.1;;;;;;;4.39;88.99707;930.7595;;;;
2022/12/04 10:04:27;;;;;;;15;10.7;;;;;;;4.39;88.87109;930.7902;;;;
2022/12/04 10:06:52;;;;;;;14.8;10.5;;;;;;;4.39;88.97461;930.7564;;;;
2022/12/04 10:09:17;;;;;;;16.7;11.9;;;;;;;4.41;89.05664;930.7878;;;;
2022/12/04 10:11:42;;;;;;;17.8;12;;;;;;;4.32;88.88086;930.7905;;;;
2022/12/04 10:14:07;;;;;;;17.2;12.2;;;;;;;4.23;89.30078;930.7003;;;;
2022/12/04 10:16:32;;;;;;;14;9.9;;;;;;;4.06;89.3877;930.8334;;;;
2022/12/04 10:19:00;;;;;;;13.5;10.2;;;;;;;3.66;90.66406;930.8533;;;;
2022/12/04 10:21:28;;;;;;;14.8;10.3;;;;;;;3.45;91.92285;930.6955;;;;
2022/12/04 10:23:54;;;;;;;16.1;11.3;;;;;;;3.43;93.11816;930.5266;;;;
2022/12/04 10:26:19;;;;;;;14.6;10.4;;;;;;;3.48;92.95117;930.7559;;;;
2022/12/04 10:28:45;;;;;;;18.7;12.3;;;;;;;3.53;92.84863;930.6013;;;;
2022/12/04 10:31:10;;;;;;;15.4;10.7;;;;;;;3.61;92.93359;930.6696;;;;
2022/12/04 10:33:35;;;;;;;15.4;11.4;;;;;;;3.73;92.4668;930.6564;;;;
2022/12/04 10:36:05;;;;;;;16.4;12;;;;;;;3.68;92.21875;930.4537;;;;
2022/12/04 10:38:30;;;;;;;16.5;11.6;;;;;;;3.58;92.28711;930.6353;;;;
2022/12/04 10:40:56;;;;;;;16.1;11.3;;;;;;;3.54;93.28809;930.5069;;;;
2022/12/04 10:43:21;;;;;;;15.9;11.4;;;;;;;3.74;93.56836;930.522;;;;
2022/12/04 10:45:48;;;;;;;14.4;10.8;;;;;;;3.98;93.20703;930.4008;;;;
2022/12/04 10:48:13;;;;;;;16.4;11.9;;;;;;;4.37;92.99805;930.1948;;;;
2022/12/04 10:50:39;;;;;;;14.1;10.7;;;;;;;4.67;90.44043;930.1995;;;;
2022/12/04 10:53:03;;;;;;;15.4;10.3;;;;;;;4.74;88.77539;930.1983;;;;
2022/12/04 10:55:29;;;;;;;14.1;10.2;;;;;;;4.64;88.00195;930.2234;;;;
2022/12/04 10:57:54;;;;;;;13.6;9.5;;;;;;;4.63;87.50293;930.2067;;;;
2022/12/04 11:00:20;;;;;;;14.4;10.1;;;;;;;4.91;86.79395;930.1321;;;;
2022/12/04 11:02:45;;;;;;;12.7;9.2;;;;;;;5.15;86.22363;930.0853;;;;
2022/12/04 11:05:12;;;;;;;12.1;9.2;;;;;;;5.42;85.76855;930.0687;;;;
2022/12/04 11:07:37;;;;;;;10.6;8.4;;;;;;;5.77;85.50098;930.0267;;;;
2022/12/04 11:10:03;;;;;;;11.2;8.1;;;;;;;5.9;84.28516;930.0433;;;;
2022/12/04 11:12:28;;;;;;;11.4;8.8;;;;;;;;;;;;;
2022/12/04 11:14:54;;;;;;;12.9;9.4;;;;;;;;;;;;;
2022/12/04 11:17:19;;;;;;;13.1;9.5;;;;;;;;;;;;;
2022/12/04 11:19:44;;;;;;;13.5;10.1;;;;;;;;;;;;;
2022/12/04 11:22:09;;;;;;;13.4;10.3;;;;;;;;;;;;;
2022/12/04 11:24:34;;;;;;;11.6;8.6;;;;;;;;;;;;;
2022/12/04 11:27:01;;;;;;;13.9;9.5;;;;;;;;;;;;;
2022/12/04 11:29:26;;;;;;;12.5;9.1;;;;;;;;;;;;;
2022/12/04 11:31:51;;;;;;;9.8;7.6;;;;;;;;;;;;;
2022/12/04 11:34:16;;;;;;;11.3;8.3;;;;;;;;;;;;;
2022/12/04 11:36:41;;;;;;;13.4;9.4;;;;;;;;;;;;;
2022/12/04 11:39:07;;;;;;;12.3;9.2;;;;;;;;;;;;;
2022/12/04 11:41:32;;;;;;;12.1;8.8;;;;;;;;;;;;;
2022/12/04 11:43:57;;;;;;;14.1;10.2;;;;;;;;;;;;;
2022/12/04 11:46:23;;;;;;;11.2;8.7;;;;;;;;;;;;;
2022/12/04 11:48:48;;;;;;;10.5;8.3;;;;;;;;;;;;;
2022/12/04 11:51:13;;;;;;;13.4;9.3;;;;;;;;;;;;;
2022/12/04 11:53:38;;;;;;;14;9.5;;;;;;;;;;;;;
2022/12/04 11:56:03;;;;;;;12.3;9.1;;;;;;;;;;;;;
2022/12/04 11:58:29;;;;;;;14.7;9.7;;;;;;;;;;;;;
2022/12/04 12:00:55;;;;;;;12.8;8.9;;;;;;;;;;;;;
2022/12/04 12:03:20;;;;;;;11.1;8.6;;;;;;;;;;;;;
2022/12/04 12:05:45;;;;;;;12;8.6;;;;;;;;;;;;;
2022/12/04 12:08:10;;;;;;;11.6;8.6;;;;;;;;;;;;;
2022/12/04 12:10:37;;;;;;;10.3;8;;;;;;;;;;;;;
2022/12/04 12:13:02;;;;;;;10.3;7.5;;;;;;;;;;;;;
2022/12/04 12:15:27;;;;;;;10.7;8;;;;;;;;;;;;;
2022/12/04 12:17:52;;;;;;;10.7;7.4;;;;;;;;;;;;;
2022/12/04 12:20:19;;;;;;;10.5;7.6;;;;;;;;;;;;;
2022/12/04 12:22:44;;;;;;;10.3;7.8;;;;;;;;;;;;;
2022/12/04 12:25:10;;;;;;;12;8.9;;;;;;;;;;;;;
2022/12/04 12:27:35;;;;;;;9.7;7.3;;;;;;;;;;;;;
2022/12/04 12:30:01;;;;;;;9.9;7.2;;;;;;;;;;;;;
2022/12/04 12:32:25;;;;;;;11;7.9;;;;;;;;;;;;;
2022/12/04 12:34:52;;;;;;;10;7.6;;;;;;;;;;;;;
2022/12/04 12:37:17;;;;;;;9.1;7.3;;;;;;;;;;;;;
2022/12/04 12:39:45;;;;;;;9.4;7.1;;;;;;;;;;;;;
2022/12/04 12:42:10;;;;;;;9;7.1;;;;;;;;;;;;;
2022/12/04 12:44:35;;;;;;;10;7.9;;;;;;;;;;;;;
2022/12/04 12:47:01;;;;;;;11.4;7.8;;;;;;;;;;;;;
2022/12/04 12:49:26;;;;;;;12.6;8.9;;;;;;;;;;;;;
2022/12/04 12:51:51;;;;;;;11.6;8.5;;;;;;;;;;;;;
2022/12/04 12:54:18;;;;;;;12.8;8.6;;;;;;;;;;;;;
2022/12/04 12:56:44;;;;;;;11.6;8.4;;;;;;;;;;;;;
2022/12/04 12:59:09;;;;;;;11.8;8.7;;;;;;;;;;;;;
2022/12/04 13:01:34;;;;;;;11.4;8.6;;;;;;;;;;;;;
2022/12/04 13:04:00;;;;;;;11.6;8.5;;;;;;;;;;;;;
2022/12/04 13:06:25;;;;;;;11.1;8.5;;;;;;;;;;;;;
2022/12/04 13:08:51;;;;;;;12.3;8.7;;;;;;;;;;;;;
2022/12/04 13:11:16;;;;;;;11.1;8.4;;;;;;;;;;;;;
2022/12/04 13:13:43;;;;;;;11.9;8.7;;;;;;;;;;;;;
2022/12/04 13:16:09;;;;;;;11.4;7.9;;;;;;;;;;;;;
2022/12/04 13:18:34;;;;;;;12.2;8.7;;;;;;;;;;;;;
2022/12/04 13:20:59;;;;;;;10.9;8.7;;;;;;;;;;;;;
2022/12/04 13:23:24;;;;;;;10.8;8.1;;;;;;;;;;;;;
2022/12/04 13:25:49;;;;;;;11.6;8.2;;;;;;;;;;;;;
2022/12/04 13:28:14;;;;;;;13.3;9.2;;;;;;;;;;;;;
2022/12/04 13:30:40;;;;;;;11.6;8.7;;;;;;;;;;;;;
2022/12/04 13:33:05;;;;;;;11.9;8.8;;;;;;;;;;;;;
2022/12/04 13:35:30;;;;;;;13.8;9.6;;;;;;;;;;;;;
2022/12/04 13:37:55;;;;;;;13.1;9.4;;;;;;;;;;;;;
2022/12/04 13:40:20;;;;;;;13.1;9.3;;;;;;;;;;;;;
2022/12/04 13:42:45;;;;;;;11.3;8.7;;;;;;;;;;;;;
2022/12/04 13:45:10;;;;;;;13.6;9.7;;;;;;;;;;;;;
2022/12/04 13:47:35;;;;;;;13.8;10;;;;;;;;;;;;;
2022/12/04 13:50:01;;;;;;;15.7;11.6;;;;;;;;;;;;;
2022/12/04 13:52:26;;;;;;;17.1;12.2;;;;;;;;;;;;;
2022/12/04 13:54:52;;;;;;;15.5;11.9;;;;;;;;;;;;;
2022/12/04 13:57:18;;;;;;;16.3;11.3;;;;;;;;;;;;;
2022/12/04 13:59:42;;;;;;;15.8;10.8;;;;;;;;;;;;;
2022/12/04 14:02:08;;;;;;;17.6;12;;;;;;;;;;;;;
2022/12/04 14:04:33;;;;;;;17.7;11.4;;;;;;;;;;;;;
2022/12/04 14:07:00;;;;;;;18.5;12.2;;;;;;;;;;;;;
2022/12/04 14:09:26;;;;;;;19;13.3;;;;;;;;;;;;;
2022/12/04 14:11:51;;;;;;;19.5;13.5;;;;;;;;;;;;;
2022/12/04 14:14:16;;;;;;;19.8;13.2;;;;;;;;;;;;;
2022/12/04 14:16:42;;;;;;;17.1;11.8;;;;;;;;;;;;;
2022/12/04 14:19:07;;;;;;;18.6;12.5;;;;;;;;;;;;;
2022/12/04 14:21:32;;;;;;;16.2;11.4;;;;;;;;;;;;;
2022/12/04 14:23:58;;;;;;;17.8;11.8;;;;;;;;;;;;;
2022/12/04 14:26:23;;;;;;;17.5;12.3;;;;;;;;;;;;;
2022/12/04 14:28:48;;;;;;;19.7;12.1;;;;;;;;;;;;;
2022/12/04 14:31:13;;;;;;;20;12.4;;;;;;;;;;;;;
2022/12/04 14:33:38;;;;;;;18.6;13.1;;;;;;;;;;;;;
2022/12/04 14:36:05;;;;;;;19.6;12.8;;;;;;;;;;;;;
2022/12/04 14:38:30;;;;;;;18.1;12.5;;;;;;;;;;;;;
2022/12/04 14:40:57;;;;;;;17.3;11.6;;;;;;;;;;;;;
2022/12/04 14:43:22;;;;;;;18.2;12.2;;;;;;;;;;;;;
2022/12/04 14:45:49;;;;;;;18.2;11.9;;;;;;;;;;;;;
2022/12/04 14:48:14;;;;;;;16.6;11.4;;;;;;;;;;;;;
2022/12/04 14:50:39;;;;;;;16;11.4;;;;;;;;;;;;;
2022/12/04 14:53:05;;;;;;;17.1;11.3;;;;;;;;;;;;;
2022/12/04 14:55:30;;;;;;;15.8;10.8;;;;;;;;;;;;;
2022/12/04 14:57:56;;;;;;;13.9;10.1;;;;;;;;;;;;;
2022/12/04 15:00:21;;;;;;;15.8;11;;;;;;;;;;;;;
2022/12/04 15:02:46;;;;;;;17.7;11.8;;;;;;;;;;;;;
2022/12/04 15:05:11;;;;;;;16.9;11.6;;;;;;;;;;;;;
2022/12/04 15:07:39;;;;;;;19.8;13;;;;;;;;;;;;;
2022/12/04 15:12:36;;;;;;;20.4;13.9;;;;;;;;;;;;;
2022/12/04 15:14:55;;;;;;;22.3;14.3;;;;;;;;;;;;;
2022/12/04 15:17:20;;;;;;;20.5;14;;;;;;;;;;;;;
2022/12/04 15:19:46;;;;;;;22.1;12.6;;;;;;;;;;;;;
2022/12/04 15:22:11;;;;;;;23.7;14.8;;;;;;;;;;;;;
2022/12/04 15:24:37;;;;;;;20.3;13.6;;;;;;;;;;;;;
2022/12/04 15:27:02;;;;;;;22.8;14.5;;;;;;;;;;;;;
2022/12/04 15:29:28;;;;;;;25.6;13.6;;;;;;;;;;;;;
2022/12/04 15:31:55;;;;;;;22.5;13.9;;;;;;;;;;;;;
2022/12/04 15:34:19;;;;;;;22.2;13.6;;;;;;;;;;;;;
2022/12/04 15:36:44;;;;;;;20.3;13.7;;;;;;;;;;;;;
2022/12/04 15:39:11;;;;;;;21.8;13.8;;;;;;;;;;;;;
2022/12/04 15:41:37;;;;;;;22.1;13.8;;;;;;;;;;;;;
2022/12/04 15:44:02;;;;;;;21.2;13.5;;;;;;;;;;;;;
2022/12/04 15:46:29;;;;;;;17.9;12.5;;;;;;;;;;;;;
2022/12/04 15:48:54;;;;;;;19;12.1;;;;;;;;;;;;;
2022/12/04 15:51:20;;;;;;;19.1;12.8;;;;;;;;;;;;;
2022/12/04 15:53:45;;;;;;;20.1;13.3;;;;;;;;;;;;;
2022/12/04 15:56:11;;;;;;;22;13.4;;;;;;;;;;;;;
2022/12/04 15:58:36;;;;;;;20.2;13.3;;;;;;;;;;;;;
2022/12/04 16:01:02;;;;;;;21.3;13.4;;;;;;;;;;;;;
2022/12/04 16:03:29;;;;;;;22.5;13;;;;;;;;;;;;;
2022/12/04 16:05:53;;;;;;;19.5;12.9;;;;;;;;;;;;;
2022/12/04 16:08:19;;;;;;;22.6;13.4;;;;;;;;;;;;;
2022/12/04 16:10:44;;;;;;;20.9;13.4;;;;;;;;;;;;;
2022/12/04 16:13:09;;;;;;;20.8;13.1;;;;;;;;;;;;;
2022/12/04 16:15:37;;;;;;;20.9;13.4;;;;;;;;;;;;;
2022/12/04 16:18:03;;;;;;;22.3;12.7;;;;;;;;;;;;;
2022/12/04 16:20:29;;;;;;;18.5;12.7;;;;;;;;;;;;;
2022/12/04 16:22:54;;;;;;;19.1;12.6;;;;;;;;;;;;;
2022/12/04 16:25:22;;;;;;;19.5;12.6;;;;;;;;;;;;;
2022/12/04 16:27:47;;;;;;;22.8;13.1;;;;;;;;;;;;;
2022/12/04 16:30:15;;;;;;;22.5;13.6;;;;;;;;;;;;;
2022/12/04 16:32:40;;;;;;;22.5;13.9;;;;;;;;;;;;;
2022/12/04 16:35:08;;;;;;;22.8;13.8;;;;;;;;;;;;;
2022/12/04 16:37:33;;;;;;;20.2;13.5;;;;;;;;;;;;;
2022/12/04 16:39:59;;;;;;;21.9;13.9;;;;;;;;;;;;;
2022/12/04 16:42:24;;;;;;;20.3;13;;;;;;;;;;;;;
2022/12/04 16:44:49;;;;;;;21.3;13.1;;;;;;;;;;;;;
2022/12/04 16:47:15;;;;;;;19.9;12.3;;;;;;;;;;;;;
2022/12/04 16:49:40;;;;;;;17.6;11.1;;;;;;;;;;;;;
2022/12/04 16:52:05;;;;;;;18.3;11.9;;;;;;;;;;;;;
2022/12/04 16:54:31;;;;;;;16.5;11.7;;;;;;;;;;;;;